sensor_id;sensor_type;location;lat;lon;timestamp;P1;durP1;ratioP1;P2;durP2;ratioP2
49548;SDS011;35450;44.518;7.466;2024-03-08T00:01:59;52.58;;;20.58;;
49548;SDS011;35450;44.518;7.466;2024-03-08T00:05:06;31.52;;;13.57;;
49548;SDS011;35450;44.518;7.466;2024-03-08T00:08:12;41.50;;;19.70;;
49548;SDS011;35450;44.518;7.466;2024-03-08T00:11:15;23.23;;;12.02;;
49548;SDS011;35450;44.518;7.466;2024-03-08T00:14:19;23.58;;;9.95;;
49548;SDS011;35450;44.518;7.466;2024-03-08T00:17:25;21.58;;;10.77;;
49548;SDS011;35450;44.518;7.466;2024-03-08T00:20:30;15.70;;;8.13;;
49548;SDS011;35450;44.518;7.466;2024-03-08T00:23:34;21.42;;;9.23;;
49548;SDS011;35450;44.518;7.466;2024-03-08T00:26:38;11.82;;;7.15;;
49548;SDS011;35450;44.518;7.466;2024-03-08T00:29:42;11.30;;;5.93;;
49548;SDS011;35450;44.518;7.466;2024-03-08T00:32:46;10.45;;;5.43;;
49548;SDS011;35450;44.518;7.466;2024-03-08T00:35:50;14.75;;;5.63;;
49548;SDS011;35450;44.518;7.466;2024-03-08T00:38:54;9.35;;;5.20;;
49548;SDS011;35450;44.518;7.466;2024-03-08T00:41:58;11.70;;;6.13;;
49548;SDS011;35450;44.518;7.466;2024-03-08T00:45:02;8.95;;;5.15;;
49548;SDS011;35450;44.518;7.466;2024-03-08T00:48:06;12.60;;;5.93;;
49548;SDS011;35450;44.518;7.466;2024-03-08T00:51:10;10.40;;;5.35;;
49548;SDS011;35450;44.518;7.466;2024-03-08T00:54:14;8.75;;;5.43;;
49548;SDS011;35450;44.518;7.466;2024-03-08T00:57:19;13.55;;;6.05;;
49548;SDS011;35450;44.518;7.466;2024-03-08T01:00:24;12.77;;;5.40;;
49548;SDS011;35450;44.518;7.466;2024-03-08T01:03:28;12.63;;;6.43;;
49548;SDS011;35450;44.518;7.466;2024-03-08T01:06:34;16.23;;;9.10;;
49548;SDS011;35450;44.518;7.466;2024-03-08T01:09:38;16.88;;;9.00;;
49548;SDS011;35450;44.518;7.466;2024-03-08T01:12:42;18.60;;;8.13;;
49548;SDS011;35450;44.518;7.466;2024-03-08T01:15:46;11.43;;;6.47;;
49548;SDS011;35450;44.518;7.466;2024-03-08T01:18:51;6.65;;;3.45;;
49548;SDS011;35450;44.518;7.466;2024-03-08T01:21:55;7.03;;;3.17;;
49548;SDS011;35450;44.518;7.466;2024-03-08T01:24:59;11.27;;;5.45;;
49548;SDS011;35450;44.518;7.466;2024-03-08T01:28:03;7.65;;;4.18;;
49548;SDS011;35450;44.518;7.466;2024-03-08T01:31:07;5.75;;;3.08;;
49548;SDS011;35450;44.518;7.466;2024-03-08T01:34:11;7.10;;;3.80;;
49548;SDS011;35450;44.518;7.466;2024-03-08T01:37:15;5.60;;;2.83;;
49548;SDS011;35450;44.518;7.466;2024-03-08T01:40:20;4.78;;;3.03;;
49548;SDS011;35450;44.518;7.466;2024-03-08T01:43:27;6.25;;;2.35;;
49548;SDS011;35450;44.518;7.466;2024-03-08T01:46:32;5.60;;;3.35;;
49548;SDS011;35450;44.518;7.466;2024-03-08T01:49:37;8.82;;;3.30;;
49548;SDS011;35450;44.518;7.466;2024-03-08T01:52:41;7.32;;;3.47;;
49548;SDS011;35450;44.518;7.466;2024-03-08T01:55:49;4.90;;;2.83;;
49548;SDS011;35450;44.518;7.466;2024-03-08T01:58:55;4.18;;;2.83;;
49548;SDS011;35450;44.518;7.466;2024-03-08T02:02:00;6.03;;;3.30;;
49548;SDS011;35450;44.518;7.466;2024-03-08T02:05:06;6.43;;;3.67;;
49548;SDS011;35450;44.518;7.466;2024-03-08T02:08:11;8.80;;;3.88;;
49548;SDS011;35450;44.518;7.466;2024-03-08T02:11:17;18.00;;;7.55;;
49548;SDS011;35450;44.518;7.466;2024-03-08T02:14:23;15.55;;;6.07;;
49548;SDS011;35450;44.518;7.466;2024-03-08T02:17:27;9.23;;;4.00;;
49548;SDS011;35450;44.518;7.466;2024-03-08T02:20:31;8.05;;;3.35;;
49548;SDS011;35450;44.518;7.466;2024-03-08T02:23:35;7.75;;;2.92;;
49548;SDS011;35450;44.518;7.466;2024-03-08T02:26:40;5.72;;;3.45;;
49548;SDS011;35450;44.518;7.466;2024-03-08T02:29:46;4.53;;;2.97;;
49548;SDS011;35450;44.518;7.466;2024-03-08T02:32:49;4.60;;;3.22;;
49548;SDS011;35450;44.518;7.466;2024-03-08T02:35:53;10.57;;;5.07;;
49548;SDS011;35450;44.518;7.466;2024-03-08T02:38:57;9.55;;;5.13;;
49548;SDS011;35450;44.518;7.466;2024-03-08T02:42:01;10.05;;;4.78;;
49548;SDS011;35450;44.518;7.466;2024-03-08T02:45:05;14.70;;;6.43;;
49548;SDS011;35450;44.518;7.466;2024-03-08T02:48:09;14.90;;;7.90;;
49548;SDS011;35450;44.518;7.466;2024-03-08T02:51:14;12.55;;;6.68;;
49548;SDS011;35450;44.518;7.466;2024-03-08T02:54:19;13.40;;;6.68;;
49548;SDS011;35450;44.518;7.466;2024-03-08T02:57:23;12.82;;;7.53;;
49548;SDS011;35450;44.518;7.466;2024-03-08T03:00:27;12.70;;;6.93;;
49548;SDS011;35450;44.518;7.466;2024-03-08T03:03:33;10.80;;;6.10;;
49548;SDS011;35450;44.518;7.466;2024-03-08T03:06:37;12.23;;;7.28;;
49548;SDS011;35450;44.518;7.466;2024-03-08T03:09:41;11.55;;;6.47;;
49548;SDS011;35450;44.518;7.466;2024-03-08T03:12:45;11.48;;;6.53;;
49548;SDS011;35450;44.518;7.466;2024-03-08T03:15:49;8.05;;;5.13;;
49548;SDS011;35450;44.518;7.466;2024-03-08T03:18:53;10.07;;;5.95;;
49548;SDS011;35450;44.518;7.466;2024-03-08T03:21:57;8.32;;;5.15;;
49548;SDS011;35450;44.518;7.466;2024-03-08T03:25:01;9.27;;;5.10;;
49548;SDS011;35450;44.518;7.466;2024-03-08T03:28:07;6.15;;;4.20;;
49548;SDS011;35450;44.518;7.466;2024-03-08T03:31:11;7.05;;;4.78;;
49548;SDS011;35450;44.518;7.466;2024-03-08T03:34:17;9.20;;;4.40;;
49548;SDS011;35450;44.518;7.466;2024-03-08T03:37:21;6.78;;;4.57;;
49548;SDS011;35450;44.518;7.466;2024-03-08T03:40:25;9.45;;;4.97;;
49548;SDS011;35450;44.518;7.466;2024-03-08T03:43:29;9.77;;;5.20;;
49548;SDS011;35450;44.518;7.466;2024-03-08T03:46:33;7.78;;;4.60;;
49548;SDS011;35450;44.518;7.466;2024-03-08T03:49:37;10.15;;;4.65;;
49548;SDS011;35450;44.518;7.466;2024-03-08T03:52:41;7.78;;;4.38;;
49548;SDS011;35450;44.518;7.466;2024-03-08T03:55:45;8.30;;;4.07;;
49548;SDS011;35450;44.518;7.466;2024-03-08T03:58:50;5.32;;;3.63;;
49548;SDS011;35450;44.518;7.466;2024-03-08T04:01:54;6.35;;;4.10;;
49548;SDS011;35450;44.518;7.466;2024-03-08T04:04:58;11.48;;;3.92;;
49548;SDS011;35450;44.518;7.466;2024-03-08T04:08:02;6.55;;;4.00;;
49548;SDS011;35450;44.518;7.466;2024-03-08T04:11:06;8.95;;;4.57;;
49548;SDS011;35450;44.518;7.466;2024-03-08T04:14:11;7.15;;;4.68;;
49548;SDS011;35450;44.518;7.466;2024-03-08T04:17:15;5.88;;;4.03;;
49548;SDS011;35450;44.518;7.466;2024-03-08T04:20:21;6.35;;;4.25;;
49548;SDS011;35450;44.518;7.466;2024-03-08T04:23:25;4.53;;;3.38;;
49548;SDS011;35450;44.518;7.466;2024-03-08T04:26:29;6.07;;;3.55;;
49548;SDS011;35450;44.518;7.466;2024-03-08T04:29:33;6.80;;;3.88;;
49548;SDS011;35450;44.518;7.466;2024-03-08T04:32:37;6.72;;;4.13;;
49548;SDS011;35450;44.518;7.466;2024-03-08T04:35:41;5.60;;;3.63;;
49548;SDS011;35450;44.518;7.466;2024-03-08T04:38:45;7.13;;;3.97;;
49548;SDS011;35450;44.518;7.466;2024-03-08T04:41:49;8.00;;;3.80;;
49548;SDS011;35450;44.518;7.466;2024-03-08T04:44:54;6.82;;;3.95;;
49548;SDS011;35450;44.518;7.466;2024-03-08T04:47:58;7.47;;;3.92;;
49548;SDS011;35450;44.518;7.466;2024-03-08T04:51:03;6.93;;;3.85;;
49548;SDS011;35450;44.518;7.466;2024-03-08T04:54:07;6.90;;;4.00;;
49548;SDS011;35450;44.518;7.466;2024-03-08T04:57:12;7.10;;;4.22;;
49548;SDS011;35450;44.518;7.466;2024-03-08T05:00:16;7.10;;;4.13;;
49548;SDS011;35450;44.518;7.466;2024-03-08T05:03:20;8.10;;;4.82;;
49548;SDS011;35450;44.518;7.466;2024-03-08T05:06:24;9.02;;;4.28;;
49548;SDS011;35450;44.518;7.466;2024-03-08T05:09:28;7.80;;;4.72;;
49548;SDS011;35450;44.518;7.466;2024-03-08T05:12:35;6.75;;;4.00;;
49548;SDS011;35450;44.518;7.466;2024-03-08T05:15:39;12.52;;;4.13;;
49548;SDS011;35450;44.518;7.466;2024-03-08T05:18:42;9.05;;;4.35;;
49548;SDS011;35450;44.518;7.466;2024-03-08T05:21:47;7.97;;;4.50;;
49548;SDS011;35450;44.518;7.466;2024-03-08T05:24:52;9.75;;;5.20;;
49548;SDS011;35450;44.518;7.466;2024-03-08T05:27:56;10.80;;;5.57;;
49548;SDS011;35450;44.518;7.466;2024-03-08T05:31:00;15.57;;;6.78;;
49548;SDS011;35450;44.518;7.466;2024-03-08T05:34:04;9.35;;;4.75;;
49548;SDS011;35450;44.518;7.466;2024-03-08T05:37:08;8.93;;;4.70;;
49548;SDS011;35450;44.518;7.466;2024-03-08T05:40:12;9.57;;;4.00;;
49548;SDS011;35450;44.518;7.466;2024-03-08T05:43:16;9.32;;;4.60;;
49548;SDS011;35450;44.518;7.466;2024-03-08T05:46:22;11.52;;;4.45;;
49548;SDS011;35450;44.518;7.466;2024-03-08T05:49:26;12.90;;;4.78;;
49548;SDS011;35450;44.518;7.466;2024-03-08T05:52:30;9.27;;;4.97;;
49548;SDS011;35450;44.518;7.466;2024-03-08T05:55:34;10.82;;;5.25;;
49548;SDS011;35450;44.518;7.466;2024-03-08T05:58:38;12.05;;;6.03;;
49548;SDS011;35450;44.518;7.466;2024-03-08T06:01:42;15.15;;;6.18;;
49548;SDS011;35450;44.518;7.466;2024-03-08T06:04:46;11.80;;;5.95;;
49548;SDS011;35450;44.518;7.466;2024-03-08T06:07:51;12.65;;;5.95;;
49548;SDS011;35450;44.518;7.466;2024-03-08T06:10:56;11.43;;;5.25;;
49548;SDS011;35450;44.518;7.466;2024-03-08T06:14:02;10.77;;;6.25;;
49548;SDS011;35450;44.518;7.466;2024-03-08T06:17:06;12.68;;;6.50;;
49548;SDS011;35450;44.518;7.466;2024-03-08T06:20:10;16.10;;;6.10;;
49548;SDS011;35450;44.518;7.466;2024-03-08T06:23:16;8.52;;;4.97;;
49548;SDS011;35450;44.518;7.466;2024-03-08T06:26:23;13.70;;;6.18;;
49548;SDS011;35450;44.518;7.466;2024-03-08T06:29:28;14.38;;;6.32;;
49548;SDS011;35450;44.518;7.466;2024-03-08T06:32:33;12.65;;;6.18;;
49548;SDS011;35450;44.518;7.466;2024-03-08T06:35:38;11.75;;;6.68;;
49548;SDS011;35450;44.518;7.466;2024-03-08T06:38:42;9.50;;;6.45;;
49548;SDS011;35450;44.518;7.466;2024-03-08T06:41:49;9.00;;;6.32;;
49548;SDS011;35450;44.518;7.466;2024-03-08T06:44:54;9.13;;;5.43;;
49548;SDS011;35450;44.518;7.466;2024-03-08T06:48:03;7.85;;;5.32;;
49548;SDS011;35450;44.518;7.466;2024-03-08T06:51:07;7.43;;;5.30;;
49548;SDS011;35450;44.518;7.466;2024-03-08T06:54:11;8.77;;;4.72;;
49548;SDS011;35450;44.518;7.466;2024-03-08T06:57:15;22.40;;;6.20;;
49548;SDS011;35450;44.518;7.466;2024-03-08T07:00:20;10.93;;;6.25;;
49548;SDS011;35450;44.518;7.466;2024-03-08T07:03:23;11.95;;;6.05;;
49548;SDS011;35450;44.518;7.466;2024-03-08T07:06:28;13.38;;;5.85;;
49548;SDS011;35450;44.518;7.466;2024-03-08T07:09:32;9.50;;;5.55;;
49548;SDS011;35450;44.518;7.466;2024-03-08T07:12:37;8.35;;;5.65;;
49548;SDS011;35450;44.518;7.466;2024-03-08T07:15:42;9.77;;;5.80;;
49548;SDS011;35450;44.518;7.466;2024-03-08T07:18:46;11.23;;;5.18;;
49548;SDS011;35450;44.518;7.466;2024-03-08T07:21:50;18.15;;;6.00;;
49548;SDS011;35450;44.518;7.466;2024-03-08T07:24:54;8.98;;;5.55;;
49548;SDS011;35450;44.518;7.466;2024-03-08T07:28:17;14.88;;;6.28;;
49548;SDS011;35450;44.518;7.466;2024-03-08T07:31:22;14.13;;;6.78;;
49548;SDS011;35450;44.518;7.466;2024-03-08T07:34:28;17.65;;;8.15;;
49548;SDS011;35450;44.518;7.466;2024-03-08T07:37:35;15.15;;;7.10;;
49548;SDS011;35450;44.518;7.466;2024-03-08T07:40:39;13.95;;;7.72;;
49548;SDS011;35450;44.518;7.466;2024-03-08T07:43:47;9.93;;;6.00;;
49548;SDS011;35450;44.518;7.466;2024-03-08T07:46:52;17.33;;;7.05;;
49548;SDS011;35450;44.518;7.466;2024-03-08T07:49:56;10.23;;;4.68;;
49548;SDS011;35450;44.518;7.466;2024-03-08T07:53:01;10.15;;;4.90;;
49548;SDS011;35450;44.518;7.466;2024-03-08T07:56:06;11.38;;;5.93;;
49548;SDS011;35450;44.518;7.466;2024-03-08T07:59:10;10.38;;;5.95;;
49548;SDS011;35450;44.518;7.466;2024-03-08T08:02:15;11.48;;;6.65;;
49548;SDS011;35450;44.518;7.466;2024-03-08T08:05:19;15.75;;;7.45;;
49548;SDS011;35450;44.518;7.466;2024-03-08T08:08:23;13.48;;;7.38;;
49548;SDS011;35450;44.518;7.466;2024-03-08T08:11:29;10.20;;;6.80;;
49548;SDS011;35450;44.518;7.466;2024-03-08T08:14:34;10.73;;;7.13;;
49548;SDS011;35450;44.518;7.466;2024-03-08T08:17:38;14.75;;;7.55;;
49548;SDS011;35450;44.518;7.466;2024-03-08T08:20:42;12.95;;;7.32;;
49548;SDS011;35450;44.518;7.466;2024-03-08T08:23:46;16.25;;;7.45;;
49548;SDS011;35450;44.518;7.466;2024-03-08T08:26:50;12.05;;;7.18;;
49548;SDS011;35450;44.518;7.466;2024-03-08T08:29:54;11.98;;;7.30;;
49548;SDS011;35450;44.518;7.466;2024-03-08T08:32:59;10.40;;;6.85;;
49548;SDS011;35450;44.518;7.466;2024-03-08T08:36:05;11.85;;;7.55;;
49548;SDS011;35450;44.518;7.466;2024-03-08T08:39:13;11.63;;;7.72;;
49548;SDS011;35450;44.518;7.466;2024-03-08T08:42:17;15.32;;;7.10;;
49548;SDS011;35450;44.518;7.466;2024-03-08T08:45:21;16.88;;;8.02;;
49548;SDS011;35450;44.518;7.466;2024-03-08T08:48:25;16.63;;;7.68;;
49548;SDS011;35450;44.518;7.466;2024-03-08T08:51:29;12.82;;;7.65;;
49548;SDS011;35450;44.518;7.466;2024-03-08T08:54:33;15.55;;;7.90;;
49548;SDS011;35450;44.518;7.466;2024-03-08T08:57:37;10.55;;;7.43;;
49548;SDS011;35450;44.518;7.466;2024-03-08T09:00:41;11.63;;;7.35;;
49548;SDS011;35450;44.518;7.466;2024-03-08T09:03:47;11.50;;;6.75;;
49548;SDS011;35450;44.518;7.466;2024-03-08T09:06:53;13.13;;;7.57;;
49548;SDS011;35450;44.518;7.466;2024-03-08T09:09:57;14.25;;;8.60;;
49548;SDS011;35450;44.518;7.466;2024-03-08T09:13:01;13.88;;;8.05;;
49548;SDS011;35450;44.518;7.466;2024-03-08T09:16:07;11.73;;;6.80;;
49548;SDS011;35450;44.518;7.466;2024-03-08T09:19:14;13.80;;;7.97;;
49548;SDS011;35450;44.518;7.466;2024-03-08T09:22:18;12.55;;;7.15;;
49548;SDS011;35450;44.518;7.466;2024-03-08T09:25:22;17.92;;;8.35;;
49548;SDS011;35450;44.518;7.466;2024-03-08T09:28:26;12.68;;;7.57;;
49548;SDS011;35450;44.518;7.466;2024-03-08T09:31:31;11.65;;;7.32;;
49548;SDS011;35450;44.518;7.466;2024-03-08T09:34:35;14.55;;;7.18;;
49548;SDS011;35450;44.518;7.466;2024-03-08T09:37:39;11.85;;;7.25;;
49548;SDS011;35450;44.518;7.466;2024-03-08T09:40:43;11.88;;;6.78;;
49548;SDS011;35450;44.518;7.466;2024-03-08T09:43:47;10.63;;;5.78;;
49548;SDS011;35450;44.518;7.466;2024-03-08T09:46:52;18.70;;;5.65;;
49548;SDS011;35450;44.518;7.466;2024-03-08T09:49:56;15.77;;;6.88;;
49548;SDS011;35450;44.518;7.466;2024-03-08T09:53:00;9.98;;;6.05;;
49548;SDS011;35450;44.518;7.466;2024-03-08T09:56:04;11.20;;;5.75;;
49548;SDS011;35450;44.518;7.466;2024-03-08T09:59:09;8.52;;;5.95;;
49548;SDS011;35450;44.518;7.466;2024-03-08T10:02:31;13.40;;;6.45;;
49548;SDS011;35450;44.518;7.466;2024-03-08T10:05:38;9.73;;;6.60;;
49548;SDS011;35450;44.518;7.466;2024-03-08T10:08:45;10.65;;;6.60;;
49548;SDS011;35450;44.518;7.466;2024-03-08T10:11:50;12.27;;;7.30;;
49548;SDS011;35450;44.518;7.466;2024-03-08T10:15:00;15.77;;;7.20;;
49548;SDS011;35450;44.518;7.466;2024-03-08T10:18:05;14.60;;;7.53;;
49548;SDS011;35450;44.518;7.466;2024-03-08T10:21:12;13.25;;;7.82;;
49548;SDS011;35450;44.518;7.466;2024-03-08T10:24:19;15.18;;;8.45;;
49548;SDS011;35450;44.518;7.466;2024-03-08T10:27:26;14.68;;;7.88;;
49548;SDS011;35450;44.518;7.466;2024-03-08T10:30:30;14.13;;;7.35;;
49548;SDS011;35450;44.518;7.466;2024-03-08T10:33:39;12.70;;;7.70;;
49548;SDS011;35450;44.518;7.466;2024-03-08T10:36:43;12.57;;;8.10;;
49548;SDS011;35450;44.518;7.466;2024-03-08T10:39:55;13.75;;;7.95;;
49548;SDS011;35450;44.518;7.466;2024-03-08T10:43:22;15.52;;;9.20;;
49548;SDS011;35450;44.518;7.466;2024-03-08T10:50:18;14.32;;;7.70;;
49548;SDS011;35450;44.518;7.466;2024-03-08T10:53:29;11.95;;;7.32;;
49548;SDS011;35450;44.518;7.466;2024-03-08T10:56:33;14.70;;;6.82;;
49548;SDS011;35450;44.518;7.466;2024-03-08T10:59:37;13.90;;;7.88;;
49548;SDS011;35450;44.518;7.466;2024-03-08T11:02:45;19.45;;;8.02;;
49548;SDS011;35450;44.518;7.466;2024-03-08T11:05:51;14.30;;;7.47;;
49548;SDS011;35450;44.518;7.466;2024-03-08T11:08:58;18.50;;;8.27;;
49548;SDS011;35450;44.518;7.466;2024-03-08T11:15:42;14.43;;;8.13;;
49548;SDS011;35450;44.518;7.466;2024-03-08T11:18:49;16.63;;;9.25;;
49548;SDS011;35450;44.518;7.466;2024-03-08T11:21:57;18.77;;;10.02;;
49548;SDS011;35450;44.518;7.466;2024-03-08T11:25:02;14.30;;;9.75;;
49548;SDS011;35450;44.518;7.466;2024-03-08T11:34:33;14.13;;;10.23;;
49548;SDS011;35450;44.518;7.466;2024-03-08T11:37:38;26.38;;;11.45;;
49548;SDS011;35450;44.518;7.466;2024-03-08T11:40:42;19.75;;;12.60;;
49548;SDS011;35450;44.518;7.466;2024-03-08T11:43:49;19.92;;;12.75;;
49548;SDS011;35450;44.518;7.466;2024-03-08T11:47:08;22.52;;;13.38;;
49548;SDS011;35450;44.518;7.466;2024-03-08T11:50:14;20.60;;;12.30;;
49548;SDS011;35450;44.518;7.466;2024-03-08T11:53:19;19.08;;;12.80;;
49548;SDS011;35450;44.518;7.466;2024-03-08T11:56:23;21.15;;;12.00;;
49548;SDS011;35450;44.518;7.466;2024-03-08T11:59:28;22.23;;;13.30;;
49548;SDS011;35450;44.518;7.466;2024-03-08T12:02:33;24.25;;;14.23;;
49548;SDS011;35450;44.518;7.466;2024-03-08T12:05:41;23.20;;;14.38;;
49548;SDS011;35450;44.518;7.466;2024-03-08T12:08:46;21.33;;;14.20;;
49548;SDS011;35450;44.518;7.466;2024-03-08T12:11:54;21.73;;;16.00;;
49548;SDS011;35450;44.518;7.466;2024-03-08T12:14:58;23.98;;;16.85;;
49548;SDS011;35450;44.518;7.466;2024-03-08T12:18:03;26.95;;;15.40;;
49548;SDS011;35450;44.518;7.466;2024-03-08T12:21:12;29.05;;;18.25;;
49548;SDS011;35450;44.518;7.466;2024-03-08T12:24:27;25.45;;;18.08;;
49548;SDS011;35450;44.518;7.466;2024-03-08T12:27:34;26.85;;;16.92;;
49548;SDS011;35450;44.518;7.466;2024-03-08T12:30:50;25.27;;;18.73;;
49548;SDS011;35450;44.518;7.466;2024-03-08T12:34:05;28.23;;;18.83;;
49548;SDS011;35450;44.518;7.466;2024-03-08T12:37:10;32.85;;;17.50;;
49548;SDS011;35450;44.518;7.466;2024-03-08T12:40:16;27.40;;;17.98;;
49548;SDS011;35450;44.518;7.466;2024-03-08T12:43:21;26.67;;;18.50;;
49548;SDS011;35450;44.518;7.466;2024-03-08T12:46:25;27.77;;;16.73;;
49548;SDS011;35450;44.518;7.466;2024-03-08T12:49:30;28.83;;;17.95;;
49548;SDS011;35450;44.518;7.466;2024-03-08T12:52:34;23.02;;;15.85;;
49548;SDS011;35450;44.518;7.466;2024-03-08T12:55:39;23.13;;;16.55;;
49548;SDS011;35450;44.518;7.466;2024-03-08T12:58:46;27.35;;;17.05;;
49548;SDS011;35450;44.518;7.466;2024-03-08T13:01:50;26.23;;;16.13;;
49548;SDS011;35450;44.518;7.466;2024-03-08T13:04:56;27.20;;;16.52;;
49548;SDS011;35450;44.518;7.466;2024-03-08T13:08:01;30.00;;;16.67;;
49548;SDS011;35450;44.518;7.466;2024-03-08T13:11:08;27.85;;;16.80;;
49548;SDS011;35450;44.518;7.466;2024-03-08T13:14:17;24.83;;;16.33;;
49548;SDS011;35450;44.518;7.466;2024-03-08T13:17:21;26.35;;;18.48;;
49548;SDS011;35450;44.518;7.466;2024-03-08T13:20:26;25.60;;;17.48;;
49548;SDS011;35450;44.518;7.466;2024-03-08T13:23:34;28.80;;;16.95;;
49548;SDS011;35450;44.518;7.466;2024-03-08T13:26:44;22.95;;;16.00;;
49548;SDS011;35450;44.518;7.466;2024-03-08T13:29:48;25.65;;;15.98;;
49548;SDS011;35450;44.518;7.466;2024-03-08T13:32:55;24.42;;;16.08;;
49548;SDS011;35450;44.518;7.466;2024-03-08T13:35:59;25.15;;;16.02;;
49548;SDS011;35450;44.518;7.466;2024-03-08T13:39:05;24.48;;;17.00;;
49548;SDS011;35450;44.518;7.466;2024-03-08T13:42:21;26.55;;;16.10;;
49548;SDS011;35450;44.518;7.466;2024-03-08T13:45:26;18.88;;;14.05;;
49548;SDS011;35450;44.518;7.466;2024-03-08T13:48:30;23.90;;;15.02;;
49548;SDS011;35450;44.518;7.466;2024-03-08T13:51:36;19.08;;;14.00;;
49548;SDS011;35450;44.518;7.466;2024-03-08T13:54:40;18.02;;;13.10;;
49548;SDS011;35450;44.518;7.466;2024-03-08T13:57:44;15.90;;;11.95;;
49548;SDS011;35450;44.518;7.466;2024-03-08T14:00:50;17.65;;;12.23;;
49548;SDS011;35450;44.518;7.466;2024-03-08T14:03:55;17.90;;;12.80;;
49548;SDS011;35450;44.518;7.466;2024-03-08T14:06:59;18.00;;;11.80;;
49548;SDS011;35450;44.518;7.466;2024-03-08T14:10:07;18.17;;;11.20;;
49548;SDS011;35450;44.518;7.466;2024-03-08T14:13:13;13.27;;;10.43;;
49548;SDS011;35450;44.518;7.466;2024-03-08T14:16:20;15.15;;;11.27;;
49548;SDS011;35450;44.518;7.466;2024-03-08T14:19:24;16.13;;;11.00;;
49548;SDS011;35450;44.518;7.466;2024-03-08T14:22:28;23.80;;;11.30;;
49548;SDS011;35450;44.518;7.466;2024-03-08T14:25:34;13.63;;;9.85;;
49548;SDS011;35450;44.518;7.466;2024-03-08T14:28:38;15.27;;;11.00;;
49548;SDS011;35450;44.518;7.466;2024-03-08T14:31:42;13.25;;;10.30;;
49548;SDS011;35450;44.518;7.466;2024-03-08T14:34:46;13.57;;;11.25;;
49548;SDS011;35450;44.518;7.466;2024-03-08T14:37:51;15.07;;;11.18;;
49548;SDS011;35450;44.518;7.466;2024-03-08T14:40:56;14.85;;;11.25;;
49548;SDS011;35450;44.518;7.466;2024-03-08T14:44:04;16.75;;;10.38;;
49548;SDS011;35450;44.518;7.466;2024-03-08T14:47:08;17.10;;;10.73;;
49548;SDS011;35450;44.518;7.466;2024-03-08T14:50:14;10.48;;;8.43;;
49548;SDS011;35450;44.518;7.466;2024-03-08T14:53:20;10.90;;;8.48;;
49548;SDS011;35450;44.518;7.466;2024-03-08T14:56:24;12.75;;;9.32;;
49548;SDS011;35450;44.518;7.466;2024-03-08T14:59:31;14.13;;;9.55;;
49548;SDS011;35450;44.518;7.466;2024-03-08T15:02:35;10.80;;;8.57;;
49548;SDS011;35450;44.518;7.466;2024-03-08T15:05:42;10.80;;;7.70;;
49548;SDS011;35450;44.518;7.466;2024-03-08T15:08:50;8.73;;;6.65;;
49548;SDS011;35450;44.518;7.466;2024-03-08T15:11:55;9.63;;;7.03;;
49548;SDS011;35450;44.518;7.466;2024-03-08T15:15:00;6.80;;;5.30;;
49548;SDS011;35450;44.518;7.466;2024-03-08T15:18:05;14.45;;;9.88;;
49548;SDS011;35450;44.518;7.466;2024-03-08T15:21:11;5.82;;;4.68;;
49548;SDS011;35450;44.518;7.466;2024-03-08T15:24:19;5.18;;;3.88;;
49548;SDS011;35450;44.518;7.466;2024-03-08T15:27:25;9.52;;;4.05;;
49548;SDS011;35450;44.518;7.466;2024-03-08T15:30:29;41.13;;;22.55;;
49548;SDS011;35450;44.518;7.466;2024-03-08T15:33:37;11.02;;;6.28;;
49548;SDS011;35450;44.518;7.466;2024-03-08T15:36:51;7.10;;;4.43;;
49548;SDS011;35450;44.518;7.466;2024-03-08T15:39:55;6.35;;;3.97;;
49548;SDS011;35450;44.518;7.466;2024-03-08T15:42:59;10.80;;;7.38;;
49548;SDS011;35450;44.518;7.466;2024-03-08T15:46:04;8.13;;;5.43;;
49548;SDS011;35450;44.518;7.466;2024-03-08T15:49:08;8.07;;;4.95;;
49548;SDS011;35450;44.518;7.466;2024-03-08T15:52:14;5.55;;;3.47;;
49548;SDS011;35450;44.518;7.466;2024-03-08T15:55:21;5.85;;;2.80;;
49548;SDS011;35450;44.518;7.466;2024-03-08T15:58:28;7.63;;;3.85;;
49548;SDS011;35450;44.518;7.466;2024-03-08T16:01:33;9.40;;;4.35;;
49548;SDS011;35450;44.518;7.466;2024-03-08T16:04:37;5.88;;;4.07;;
49548;SDS011;35450;44.518;7.466;2024-03-08T16:07:41;9.30;;;4.63;;
49548;SDS011;35450;44.518;7.466;2024-03-08T16:10:47;8.10;;;4.70;;
49548;SDS011;35450;44.518;7.466;2024-03-08T16:13:58;7.63;;;4.57;;
49548;SDS011;35450;44.518;7.466;2024-03-08T16:17:04;5.43;;;4.35;;
49548;SDS011;35450;44.518;7.466;2024-03-08T16:20:08;6.30;;;4.55;;
49548;SDS011;35450;44.518;7.466;2024-03-08T16:23:15;7.70;;;4.20;;
49548;SDS011;35450;44.518;7.466;2024-03-08T16:26:19;8.40;;;6.30;;
49548;SDS011;35450;44.518;7.466;2024-03-08T16:29:26;14.63;;;8.77;;
49548;SDS011;35450;44.518;7.466;2024-03-08T16:32:30;15.65;;;6.35;;
49548;SDS011;35450;44.518;7.466;2024-03-08T16:35:34;12.80;;;7.32;;
49548;SDS011;35450;44.518;7.466;2024-03-08T16:38:43;7.00;;;5.25;;
49548;SDS011;35450;44.518;7.466;2024-03-08T16:41:49;8.65;;;5.70;;
49548;SDS011;35450;44.518;7.466;2024-03-08T16:44:53;7.78;;;5.68;;
49548;SDS011;35450;44.518;7.466;2024-03-08T16:47:57;9.70;;;5.18;;
49548;SDS011;35450;44.518;7.466;2024-03-08T16:51:02;12.88;;;6.88;;
49548;SDS011;35450;44.518;7.466;2024-03-08T16:54:07;6.38;;;4.47;;
49548;SDS011;35450;44.518;7.466;2024-03-08T16:57:12;9.63;;;6.15;;
49548;SDS011;35450;44.518;7.466;2024-03-08T17:00:18;13.27;;;6.38;;
49548;SDS011;35450;44.518;7.466;2024-03-08T17:03:31;9.25;;;5.65;;
49548;SDS011;35450;44.518;7.466;2024-03-08T17:06:35;11.82;;;5.80;;
49548;SDS011;35450;44.518;7.466;2024-03-08T17:09:39;8.20;;;6.57;;
49548;SDS011;35450;44.518;7.466;2024-03-08T17:12:45;7.57;;;5.95;;
49548;SDS011;35450;44.518;7.466;2024-03-08T17:15:51;7.93;;;5.85;;
49548;SDS011;35450;44.518;7.466;2024-03-08T17:18:57;6.32;;;5.13;;
49548;SDS011;35450;44.518;7.466;2024-03-08T17:22:02;6.30;;;4.35;;
49548;SDS011;35450;44.518;7.466;2024-03-08T17:25:07;8.73;;;6.68;;
49548;SDS011;35450;44.518;7.466;2024-03-08T17:28:12;7.00;;;4.90;;
49548;SDS011;35450;44.518;7.466;2024-03-08T17:31:17;7.10;;;5.13;;
49548;SDS011;35450;44.518;7.466;2024-03-08T17:34:20;7.60;;;4.55;;
49548;SDS011;35450;44.518;7.466;2024-03-08T17:37:24;6.88;;;4.20;;
49548;SDS011;35450;44.518;7.466;2024-03-08T17:40:32;6.95;;;4.05;;
49548;SDS011;35450;44.518;7.466;2024-03-08T17:43:51;6.20;;;5.22;;
49548;SDS011;35450;44.518;7.466;2024-03-08T17:46:58;8.57;;;6.07;;
49548;SDS011;35450;44.518;7.466;2024-03-08T17:50:02;6.50;;;4.82;;
49548;SDS011;35450;44.518;7.466;2024-03-08T17:53:09;10.25;;;5.72;;
49548;SDS011;35450;44.518;7.466;2024-03-08T17:56:13;5.90;;;4.32;;
49548;SDS011;35450;44.518;7.466;2024-03-08T17:59:18;6.30;;;4.38;;
49548;SDS011;35450;44.518;7.466;2024-03-08T18:02:22;4.53;;;3.70;;
49548;SDS011;35450;44.518;7.466;2024-03-08T18:05:28;7.38;;;3.47;;
49548;SDS011;35450;44.518;7.466;2024-03-08T18:08:36;6.20;;;3.80;;
49548;SDS011;35450;44.518;7.466;2024-03-08T18:11:40;5.45;;;3.60;;
49548;SDS011;35450;44.518;7.466;2024-03-08T18:14:44;4.03;;;2.50;;
49548;SDS011;35450;44.518;7.466;2024-03-08T18:17:48;2.80;;;2.30;;
49548;SDS011;35450;44.518;7.466;2024-03-08T18:20:53;3.65;;;2.33;;
49548;SDS011;35450;44.518;7.466;2024-03-08T18:23:57;3.65;;;2.40;;
49548;SDS011;35450;44.518;7.466;2024-03-08T18:27:01;3.90;;;2.63;;
49548;SDS011;35450;44.518;7.466;2024-03-08T18:30:06;9.95;;;5.82;;
49548;SDS011;35450;44.518;7.466;2024-03-08T18:33:15;5.32;;;3.75;;
49548;SDS011;35450;44.518;7.466;2024-03-08T18:36:18;4.30;;;2.85;;
49548;SDS011;35450;44.518;7.466;2024-03-08T18:39:23;6.10;;;4.07;;